sensor_id;sensor_type;location;lat;lon;timestamp;temperature;humidity
18932;DHT22;9598;50.954;3.112;2022-10-22T00:01:03;16.70;99.90
18932;DHT22;9598;50.954;3.112;2022-10-22T00:06:06;16.70;99.90
18932;DHT22;9598;50.954;3.112;2022-10-22T00:11:09;16.70;99.90
18932;DHT22;9598;50.954;3.112;2022-10-22T00:16:13;16.60;99.90
18932;DHT22;9598;50.954;3.112;2022-10-22T00:21:15;16.50;99.90
18932;DHT22;9598;50.954;3.112;2022-10-22T00:26:17;16.60;99.90
18932;DHT22;9598;50.954;3.112;2022-10-22T00:31:21;16.50;99.90
18932;DHT22;9598;50.954;3.112;2022-10-22T00:36:23;16.50;99.90
18932;DHT22;9598;50.954;3.112;2022-10-22T00:41:25;16.40;99.90
18932;DHT22;9598;50.954;3.112;2022-10-22T00:46:28;16.40;99.90
18932;DHT22;9598;50.954;3.112;2022-10-22T00:51:32;16.40;99.90
18932;DHT22;9598;50.954;3.112;2022-10-22T00:56:35;16.30;99.90
18932;DHT22;9598;50.954;3.112;2022-10-22T01:01:39;16.30;99.90
18932;DHT22;9598;50.954;3.112;2022-10-22T01:06:41;16.30;99.90
18932;DHT22;9598;50.954;3.112;2022-10-22T01:11:52;16.30;99.90
18932;DHT22;9598;50.954;3.112;2022-10-22T01:17:03;16.30;99.90
18932;DHT22;9598;50.954;3.112;2022-10-22T01:22:10;16.30;99.90
18932;DHT22;9598;50.954;3.112;2022-10-22T01:27:25;16.40;99.90
18932;DHT22;9598;50.954;3.112;2022-10-22T01:32:35;16.30;99.90
18932;DHT22;9598;50.954;3.112;2022-10-22T01:37:44;16.30;99.90
18932;DHT22;9598;50.954;3.112;2022-10-22T01:42:55;16.30;99.90
18932;DHT22;9598;50.954;3.112;2022-10-22T01:48:07;16.30;99.90
18932;DHT22;9598;50.954;3.112;2022-10-22T01:53:31;16.20;99.90
18932;DHT22;9598;50.954;3.112;2022-10-22T01:58:39;16.20;99.90
18932;DHT22;9598;50.954;3.112;2022-10-22T02:03:49;16.20;99.90
18932;DHT22;9598;50.954;3.112;2022-10-22T02:08:53;16.20;99.90
18932;DHT22;9598;50.954;3.112;2022-10-22T02:13:58;16.20;99.90
18932;DHT22;9598;50.954;3.112;2022-10-22T02:19:09;16.20;99.90
18932;DHT22;9598;50.954;3.112;2022-10-22T02:24:15;16.20;99.90
18932;DHT22;9598;50.954;3.112;2022-10-22T02:29:21;16.10;99.90
18932;DHT22;9598;50.954;3.112;2022-10-22T02:34:30;16.10;99.90
18932;DHT22;9598;50.954;3.112;2022-10-22T02:39:33;16.10;99.90
18932;DHT22;9598;50.954;3.112;2022-10-22T02:44:36;16.10;99.90
18932;DHT22;9598;50.954;3.112;2022-10-22T02:49:39;16.10;99.90
18932;DHT22;9598;50.954;3.112;2022-10-22T02:54:41;16.10;99.90
18932;DHT22;9598;50.954;3.112;2022-10-22T02:59:43;16.00;99.90
18932;DHT22;9598;50.954;3.112;2022-10-22T03:04:46;16.10;99.90
18932;DHT22;9598;50.954;3.112;2022-10-22T03:09:48;16.00;99.90
18932;DHT22;9598;50.954;3.112;2022-10-22T03:14:50;16.10;99.90
18932;DHT22;9598;50.954;3.112;2022-10-22T03:19:54;16.10;99.90
18932;DHT22;9598;50.954;3.112;2022-10-22T03:24:58;16.10;99.90
18932;DHT22;9598;50.954;3.112;2022-10-22T03:30:02;16.10;99.90
18932;DHT22;9598;50.954;3.112;2022-10-22T03:35:06;16.10;99.90
18932;DHT22;9598;50.954;3.112;2022-10-22T03:40:09;16.10;99.90
18932;DHT22;9598;50.954;3.112;2022-10-22T03:45:11;16.10;99.90
18932;DHT22;9598;50.954;3.112;2022-10-22T03:50:15;16.10;99.90
18932;DHT22;9598;50.954;3.112;2022-10-22T03:55:17;16.20;99.90
18932;DHT22;9598;50.954;3.112;2022-10-22T04:00:20;16.20;99.90
18932;DHT22;9598;50.954;3.112;2022-10-22T04:05:23;16.10;99.90
18932;DHT22;9598;50.954;3.112;2022-10-22T04:10:25;16.10;99.90
18932;DHT22;9598;50.954;3.112;2022-10-22T04:15:27;16.10;99.90
18932;DHT22;9598;50.954;3.112;2022-10-22T04:20:30;16.10;99.90
18932;DHT22;9598;50.954;3.112;2022-10-22T04:25:32;16.10;99.90
18932;DHT22;9598;50.954;3.112;2022-10-22T04:30:35;16.10;99.90
18932;DHT22;9598;50.954;3.112;2022-10-22T04:35:39;16.10;99.90
18932;DHT22;9598;50.954;3.112;2022-10-22T04:40:41;16.10;99.90
18932;DHT22;9598;50.954;3.112;2022-10-22T04:45:43;16.00;99.90
18932;DHT22;9598;50.954;3.112;2022-10-22T04:50:46;16.10;99.90
18932;DHT22;9598;50.954;3.112;2022-10-22T04:55:48;16.00;99.90
18932;DHT22;9598;50.954;3.112;2022-10-22T05:00:50;16.00;99.90
18932;DHT22;9598;50.954;3.112;2022-10-22T05:05:53;15.90;99.90
18932;DHT22;9598;50.954;3.112;2022-10-22T05:10:55;15.90;99.90
18932;DHT22;9598;50.954;3.112;2022-10-22T05:16:00;15.90;99.90
18932;DHT22;9598;50.954;3.112;2022-10-22T05:21:06;15.90;99.90
18932;DHT22;9598;50.954;3.112;2022-10-22T05:26:10;15.90;99.90
18932;DHT22;9598;50.954;3.112;2022-10-22T05:31:13;15.90;99.90
18932;DHT22;9598;50.954;3.112;2022-10-22T05:36:19;15.90;99.90
18932;DHT22;9598;50.954;3.112;2022-10-22T05:41:23;15.90;99.90
18932;DHT22;9598;50.954;3.112;2022-10-22T05:46:26;16.00;99.90
18932;DHT22;9598;50.954;3.112;2022-10-22T05:51:34;16.00;99.90
18932;DHT22;9598;50.954;3.112;2022-10-22T05:56:37;15.90;99.90
18932;DHT22;9598;50.954;3.112;2022-10-22T06:01:39;15.90;99.90
18932;DHT22;9598;50.954;3.112;2022-10-22T06:06:44;16.00;99.90
18932;DHT22;9598;50.954;3.112;2022-10-22T06:11:47;16.00;99.90
18932;DHT22;9598;50.954;3.112;2022-10-22T06:16:49;16.00;99.90
18932;DHT22;9598;50.954;3.112;2022-10-22T06:21:53;16.00;99.90
18932;DHT22;9598;50.954;3.112;2022-10-22T06:26:55;16.00;99.90
18932;DHT22;9598;50.954;3.112;2022-10-22T06:31:57;16.00;99.90
18932;DHT22;9598;50.954;3.112;2022-10-22T06:37:00;15.90;99.90
18932;DHT22;9598;50.954;3.112;2022-10-22T06:42:02;15.90;99.90
18932;DHT22;9598;50.954;3.112;2022-10-22T06:47:08;16.00;99.90
18932;DHT22;9598;50.954;3.112;2022-10-22T06:52:12;16.00;99.90
18932;DHT22;9598;50.954;3.112;2022-10-22T06:57:14;16.00;99.90
18932;DHT22;9598;50.954;3.112;2022-10-22T07:02:15;16.00;99.90
18932;DHT22;9598;50.954;3.112;2022-10-22T07:07:19;16.10;99.90
18932;DHT22;9598;50.954;3.112;2022-10-22T07:12:21;16.10;99.90
18932;DHT22;9598;50.954;3.112;2022-10-22T07:17:23;16.00;99.90
18932;DHT22;9598;50.954;3.112;2022-10-22T07:22:26;16.00;99.90
18932;DHT22;9598;50.954;3.112;2022-10-22T07:27:28;16.10;99.90
18932;DHT22;9598;50.954;3.112;2022-10-22T07:32:30;16.10;99.90
18932;DHT22;9598;50.954;3.112;2022-10-22T07:37:34;16.20;99.90
18932;DHT22;9598;50.954;3.112;2022-10-22T07:42:36;16.20;99.90
18932;DHT22;9598;50.954;3.112;2022-10-22T07:47:38;16.20;99.90
18932;DHT22;9598;50.954;3.112;2022-10-22T07:52:41;16.20;99.90
18932;DHT22;9598;50.954;3.112;2022-10-22T07:57:43;16.20;99.90
18932;DHT22;9598;50.954;3.112;2022-10-22T08:02:45;16.20;99.90
18932;DHT22;9598;50.954;3.112;2022-10-22T08:07:49;16.20;99.90
18932;DHT22;9598;50.954;3.112;2022-10-22T08:12:51;16.20;99.90
18932;DHT22;9598;50.954;3.112;2022-10-22T08:17:53;16.10;99.90
18932;DHT22;9598;50.954;3.112;2022-10-22T08:22:56;16.20;99.90
18932;DHT22;9598;50.954;3.112;2022-10-22T08:27:59;16.20;99.90
18932;DHT22;9598;50.954;3.112;2022-10-22T08:33:01;16.30;99.90
18932;DHT22;9598;50.954;3.112;2022-10-22T08:38:04;16.30;99.90
18932;DHT22;9598;50.954;3.112;2022-10-22T08:43:36;16.40;99.90
18932;DHT22;9598;50.954;3.112;2022-10-22T08:48:44;16.50;99.90
18932;DHT22;9598;50.954;3.112;2022-10-22T08:54:05;16.60;99.90
18932;DHT22;9598;50.954;3.112;2022-10-22T08:59:13;16.60;99.90
18932;DHT22;9598;50.954;3.112;2022-10-22T09:04:20;16.70;99.90
18932;DHT22;9598;50.954;3.112;2022-10-22T09:09:29;16.80;99.90
18932;DHT22;9598;50.954;3.112;2022-10-22T09:14:34;16.90;99.90
18932;DHT22;9598;50.954;3.112;2022-10-22T09:19:42;17.00;99.90
18932;DHT22;9598;50.954;3.112;2022-10-22T09:24:51;17.10;99.90
18932;DHT22;9598;50.954;3.112;2022-10-22T09:29:55;17.20;99.90
18932;DHT22;9598;50.954;3.112;2022-10-22T09:34:57;17.40;99.90
18932;DHT22;9598;50.954;3.112;2022-10-22T09:40:04;17.40;99.90
18932;DHT22;9598;50.954;3.112;2022-10-22T09:45:14;17.50;99.90
18932;DHT22;9598;50.954;3.112;2022-10-22T09:50:26;17.50;99.90
18932;DHT22;9598;50.954;3.112;2022-10-22T09:55:31;17.60;99.90
18932;DHT22;9598;50.954;3.112;2022-10-22T10:00:33;17.60;99.90
18932;DHT22;9598;50.954;3.112;2022-10-22T10:05:35;17.70;99.90
18932;DHT22;9598;50.954;3.112;2022-10-22T10:10:42;17.80;99.90
18932;DHT22;9598;50.954;3.112;2022-10-22T10:15:50;17.90;99.90
18932;DHT22;9598;50.954;3.112;2022-10-22T10:20:58;17.90;99.90
18932;DHT22;9598;50.954;3.112;2022-10-22T10:26:10;18.00;99.90
18932;DHT22;9598;50.954;3.112;2022-10-22T10:31:21;18.10;99.90
18932;DHT22;9598;50.954;3.112;2022-10-22T10:36:33;18.20;99.90
18932;DHT22;9598;50.954;3.112;2022-10-22T10:41:47;18.40;99.90
18932;DHT22;9598;50.954;3.112;2022-10-22T10:46:57;18.50;99.90
18932;DHT22;9598;50.954;3.112;2022-10-22T10:52:05;18.50;99.90
18932;DHT22;9598;50.954;3.112;2022-10-22T10:57:18;18.50;99.90
18932;DHT22;9598;50.954;3.112;2022-10-22T11:08:03;18.60;99.90
18932;DHT22;9598;50.954;3.112;2022-10-22T11:13:15;18.70;99.90
18932;DHT22;9598;50.954;3.112;2022-10-22T11:18:23;18.80;99.90
18932;DHT22;9598;50.954;3.112;2022-10-22T11:23:31;18.80;99.90
18932;DHT22;9598;50.954;3.112;2022-10-22T11:28:42;18.90;99.90
18932;DHT22;9598;50.954;3.112;2022-10-22T11:33:51;18.90;99.90
18932;DHT22;9598;50.954;3.112;2022-10-22T11:38:54;18.80;99.90
18932;DHT22;9598;50.954;3.112;2022-10-22T11:44:08;18.70;99.90
18932;DHT22;9598;50.954;3.112;2022-10-22T11:49:21;18.80;99.90
18932;DHT22;9598;50.954;3.112;2022-10-22T11:54:36;18.90;99.90
18932;DHT22;9598;50.954;3.112;2022-10-22T11:59:49;19.00;99.90
18932;DHT22;9598;50.954;3.112;2022-10-22T12:04:51;19.20;99.90
18932;DHT22;9598;50.954;3.112;2022-10-22T12:09:54;19.30;99.90
18932;DHT22;9598;50.954;3.112;2022-10-22T12:15:00;19.40;99.90
18932;DHT22;9598;50.954;3.112;2022-10-22T12:20:10;19.50;99.90
18932;DHT22;9598;50.954;3.112;2022-10-22T12:25:17;19.60;99.90
18932;DHT22;9598;50.954;3.112;2022-10-22T12:30:24;19.60;99.90
18932;DHT22;9598;50.954;3.112;2022-10-22T12:35:29;19.60;99.90
18932;DHT22;9598;50.954;3.112;2022-10-22T12:40:33;19.70;99.90
18932;DHT22;9598;50.954;3.112;2022-10-22T12:45:37;19.80;99.90
18932;DHT22;9598;50.954;3.112;2022-10-22T12:50:42;19.90;99.90
18932;DHT22;9598;50.954;3.112;2022-10-22T12:55:46;19.90;99.90
18932;DHT22;9598;50.954;3.112;2022-10-22T13:00:53;19.90;99.90
18932;DHT22;9598;50.954;3.112;2022-10-22T13:06:11;20.00;99.90
18932;DHT22;9598;50.954;3.112;2022-10-22T13:11:19;20.20;99.90
18932;DHT22;9598;50.954;3.112;2022-10-22T13:16:24;20.30;99.90
18932;DHT22;9598;50.954;3.112;2022-10-22T13:21:31;20.30;99.90
18932;DHT22;9598;50.954;3.112;2022-10-22T13:26:36;20.30;99.90
18932;DHT22;9598;50.954;3.112;2022-10-22T13:31:44;20.20;99.90
18932;DHT22;9598;50.954;3.112;2022-10-22T13:36:47;20.10;99.90
18932;DHT22;9598;50.954;3.112;2022-10-22T13:41:50;20.00;99.90
18932;DHT22;9598;50.954;3.112;2022-10-22T13:46:53;20.00;99.90
18932;DHT22;9598;50.954;3.112;2022-10-22T13:51:55;20.00;99.90
18932;DHT22;9598;50.954;3.112;2022-10-22T13:56:58;20.00;99.90
18932;DHT22;9598;50.954;3.112;2022-10-22T14:02:02;20.00;99.90
18932;DHT22;9598;50.954;3.112;2022-10-22T14:07:09;20.00;99.90
18932;DHT22;9598;50.954;3.112;2022-10-22T14:12:15;20.00;99.90
18932;DHT22;9598;50.954;3.112;2022-10-22T14:17:19;20.00;99.90
18932;DHT22;9598;50.954;3.112;2022-10-22T14:22:24;20.00;99.90
18932;DHT22;9598;50.954;3.112;2022-10-22T14:27:27;20.00;99.90
18932;DHT22;9598;50.954;3.112;2022-10-22T14:32:31;19.90;99.90
18932;DHT22;9598;50.954;3.112;2022-10-22T14:37:33;20.00;99.90
18932;DHT22;9598;50.954;3.112;2022-10-22T14:42:39;19.90;99.90
18932;DHT22;9598;50.954;3.112;2022-10-22T14:47:43;19.90;99.90
18932;DHT22;9598;50.954;3.112;2022-10-22T14:52:45;19.80;99.90
18932;DHT22;9598;50.954;3.112;2022-10-22T14:57:47;19.80;99.90
18932;DHT22;9598;50.954;3.112;2022-10-22T15:02:50;19.80;99.90
18932;DHT22;9598;50.954;3.112;2022-10-22T15:07:52;19.80;99.90
18932;DHT22;9598;50.954;3.112;2022-10-22T15:12:54;19.80;99.90
18932;DHT22;9598;50.954;3.112;2022-10-22T15:17:57;19.80;99.90
18932;DHT22;9598;50.954;3.112;2022-10-22T15:22:59;19.80;99.90
18932;DHT22;9598;50.954;3.112;2022-10-22T15:28:02;19.80;99.90
18932;DHT22;9598;50.954;3.112;2022-10-22T15:33:06;19.70;99.90
18932;DHT22;9598;50.954;3.112;2022-10-22T15:38:08;19.70;99.90
18932;DHT22;9598;50.954;3.112;2022-10-22T15:43:10;19.70;99.90
18932;DHT22;9598;50.954;3.112;2022-10-22T15:48:14;19.60;99.90
18932;DHT22;9598;50.954;3.112;2022-10-22T15:53:16;19.60;99.90
18932;DHT22;9598;50.954;3.112;2022-10-22T15:58:18;19.60;99.90
18932;DHT22;9598;50.954;3.112;2022-10-22T16:03:21;19.50;99.90
18932;DHT22;9598;50.954;3.112;2022-10-22T16:08:23;19.40;99.90
18932;DHT22;9598;50.954;3.112;2022-10-22T16:13:25;19.40;99.90
18932;DHT22;9598;50.954;3.112;2022-10-22T16:18:29;19.30;99.90
18932;DHT22;9598;50.954;3.112;2022-10-22T16:23:32;19.30;99.90
18932;DHT22;9598;50.954;3.112;2022-10-22T16:28:34;19.20;99.90
18932;DHT22;9598;50.954;3.112;2022-10-22T16:33:39;19.10;99.90
18932;DHT22;9598;50.954;3.112;2022-10-22T16:38:42;19.00;99.90
18932;DHT22;9598;50.954;3.112;2022-10-22T16:43:45;19.00;99.90
18932;DHT22;9598;50.954;3.112;2022-10-22T16:48:51;18.90;99.90
18932;DHT22;9598;50.954;3.112;2022-10-22T16:53:54;18.90;99.90
18932;DHT22;9598;50.954;3.112;2022-10-22T16:58:56;18.80;99.90
18932;DHT22;9598;50.954;3.112;2022-10-22T17:04:00;18.70;99.90
18932;DHT22;9598;50.954;3.112;2022-10-22T17:09:03;18.70;99.90
18932;DHT22;9598;50.954;3.112;2022-10-22T17:14:05;18.60;99.90
18932;DHT22;9598;50.954;3.112;2022-10-22T17:19:10;18.60;99.90
18932;DHT22;9598;50.954;3.112;2022-10-22T17:24:13;18.50;99.90
18932;DHT22;9598;50.954;3.112;2022-10-22T17:29:15;18.50;99.90
18932;DHT22;9598;50.954;3.112;2022-10-22T17:34:19;18.40;99.90
18932;DHT22;9598;50.954;3.112;2022-10-22T17:39:21;18.40;99.90
18932;DHT22;9598;50.954;3.112;2022-10-22T17:44:23;18.30;99.90
18932;DHT22;9598;50.954;3.112;2022-10-22T17:49:26;18.20;99.90
18932;DHT22;9598;50.954;3.112;2022-10-22T17:54:28;18.20;99.90
18932;DHT22;9598;50.954;3.112;2022-10-22T17:59:31;18.10;99.90
18932;DHT22;9598;50.954;3.112;2022-10-22T18:04:34;18.10;99.90
18932;DHT22;9598;50.954;3.112;2022-10-22T18:09:38;18.00;99.90
18932;DHT22;9598;50.954;3.112;2022-10-22T18:14:40;18.00;99.90
18932;DHT22;9598;50.954;3.112;2022-10-22T18:19:43;17.90;99.90
18932;DHT22;9598;50.954;3.112;2022-10-22T18:24:45;17.90;99.90
18932;DHT22;9598;50.954;3.112;2022-10-22T18:29:48;17.90;99.90
18932;DHT22;9598;50.954;3.112;2022-10-22T18:34:52;17.80;99.90
18932;DHT22;9598;50.954;3.112;2022-10-22T18:39:54;17.80;99.90
18932;DHT22;9598;50.954;3.112;2022-10-22T18:44:56;17.80;99.90
18932;DHT22;9598;50.954;3.112;2022-10-22T18:49:59;17.80;99.90
18932;DHT22;9598;50.954;3.112;2022-10-22T18:55:01;17.80;99.90
18932;DHT22;9598;50.954;3.112;2022-10-22T19:00:05;17.80;99.90
18932;DHT22;9598;50.954;3.112;2022-10-22T19:05:08;17.70;99.90
18932;DHT22;9598;50.954;3.112;2022-10-22T19:10:11;17.70;99.90
18932;DHT22;9598;50.954;3.112;2022-10-22T19:15:14;17.60;99.90
18932;DHT22;9598;50.954;3.112;2022-10-22T19:20:18;17.70;99.90
18932;DHT22;9598;50.954;3.112;2022-10-22T19:25:20;17.60;99.90
18932;DHT22;9598;50.954;3.112;2022-10-22T19:30:22;17.50;99.90
18932;DHT22;9598;50.954;3.112;2022-10-22T19:35:25;17.60;99.90
18932;DHT22;9598;50.954;3.112;2022-10-22T19:40:27;17.50;99.90
18932;DHT22;9598;50.954;3.112;2022-10-22T19:45:29;17.50;99.90
18932;DHT22;9598;50.954;3.112;2022-10-22T19:50:32;17.50;99.90
18932;DHT22;9598;50.954;3.112;2022-10-22T19:55:40;17.40;99.90
18932;DHT22;9598;50.954;3.112;2022-10-22T20:00:42;17.40;99.90
18932;DHT22;9598;50.954;3.112;2022-10-22T20:05:46;17.40;99.90
18932;DHT22;9598;50.954;3.112;2022-10-22T20:10:48;17.40;99.90
18932;DHT22;9598;50.954;3.112;2022-10-22T20:15:50;17.40;99.90
18932;DHT22;9598;50.954;3.112;2022-10-22T20:20:54;17.30;99.90
18932;DHT22;9598;50.954;3.112;2022-10-22T20:25:56;17.30;99.90
18932;DHT22;9598;50.954;3.112;2022-10-22T20:30:58;17.30;99.90
18932;DHT22;9598;50.954;3.112;2022-10-22T20:36:04;17.30;99.90
18932;DHT22;9598;50.954;3.112;2022-10-22T20:41:09;17.30;99.90
18932;DHT22;9598;50.954;3.112;2022-10-22T20:46:15;17.30;99.90
18932;DHT22;9598;50.954;3.112;2022-10-22T20:51:18;17.20;99.90
18932;DHT22;9598;50.954;3.112;2022-10-22T20:56:21;17.20;99.90
18932;DHT22;9598;50.954;3.112;2022-10-22T21:01:23;17.20;99.90
18932;DHT22;9598;50.954;3.112;2022-10-22T21:06:29;17.20;99.90
18932;DHT22;9598;50.954;3.112;2022-10-22T21:11:31;17.20;99.90
18932;DHT22;9598;50.954;3.112;2022-10-22T21:16:33;17.20;99.90
18932;DHT22;9598;50.954;3.112;2022-10-22T21:21:37;17.10;99.90
18932;DHT22;9598;50.954;3.112;2022-10-22T21:26:40;17.10;99.90
18932;DHT22;9598;50.954;3.112;2022-10-22T21:31:43;17.10;99.90
18932;DHT22;9598;50.954;3.112;2022-10-22T21:36:46;17.10;99.90
18932;DHT22;9598;50.954;3.112;2022-10-22T21:41:48;17.00;99.90
18932;DHT22;9598;50.954;3.112;2022-10-22T21:46:50;17.00;99.90
18932;DHT22;9598;50.954;3.112;2022-10-22T21:51:54;17.00;99.90
18932;DHT22;9598;50.954;3.112;2022-10-22T21:56:56;16.90;99.90
18932;DHT22;9598;50.954;3.112;2022-10-22T22:01:58;16.90;99.90
18932;DHT22;9598;50.954;3.112;2022-10-22T22:07:01;16.90;99.90
18932;DHT22;9598;50.954;3.112;2022-10-22T22:12:03;16.90;99.90
18932;DHT22;9598;50.954;3.112;2022-10-22T22:17:06;16.90;99.90
18932;DHT22;9598;50.954;3.112;2022-10-22T22:22:11;16.90;99.90
18932;DHT22;9598;50.954;3.112;2022-10-22T22:27:13;16.90;99.90
18932;DHT22;9598;50.954;3.112;2022-10-22T22:32:16;16.90;99.90
18932;DHT22;9598;50.954;3.112;2022-10-22T22:37:20;16.80;99.90
18932;DHT22;9598;50.954;3.112;2022-10-22T22:42:22;16.80;99.90
18932;DHT22;9598;50.954;3.112;2022-10-22T22:47:24;16.90;99.90
18932;DHT22;9598;50.954;3.112;2022-10-22T22:52:27;16.80;99.90
18932;DHT22;9598;50.954;3.112;2022-10-22T22:57:29;16.80;99.90
18932;DHT22;9598;50.954;3.112;2022-10-22T23:02:31;16.80;99.90
18932;DHT22;9598;50.954;3.112;2022-10-22T23:07:34;16.80;99.90
18932;DHT22;9598;50.954;3.112;2022-10-22T23:12:36;16.80;99.90
18932;DHT22;9598;50.954;3.112;2022-10-22T23:17:38;16.80;99.90
18932;DHT22;9598;50.954;3.112;2022-10-22T23:22:42;16.80;99.90
18932;DHT22;9598;50.954;3.112;2022-10-22T23:27:44;16.80;99.90
18932;DHT22;9598;50.954;3.112;2022-10-22T23:32:46;16.80;99.90
18932;DHT22;9598;50.954;3.112;2022-10-22T23:37:49;16.80;99.90
18932;DHT22;9598;50.954;3.112;2022-10-22T23:42:51;16.80;99.90
18932;DHT22;9598;50.954;3.112;2022-10-22T23:47:53;16.80;99.90
18932;DHT22;9598;50.954;3.112;2022-10-22T23:52:57;16.80;99.90
18932;DHT22;9598;50.954;3.112;2022-10-22T23:57:59;16.80;99.90
